Time;durP1;ratioP1;P1;durP2;ratioP2;P2;SDS_P1;SDS_P2;PMS_P1;PMS_P2;Temp;Humidity;BMP_temperature;BMP_pressure;BME280_temperature;BME280_humidity;BME280_pressure;Samples;Min_cycle;Max_cycle;Signal;HPM_P1;HPM_P2
2023/05/06 00:01:06;;;;;;;13.80;10.80;;;;;;;;;;5017821;22;20663;-70
2023/05/06 00:03:33;;;;;;;16.52;11.43;;;;;;;;;;5012722;28;20535;-70
2023/05/06 00:05:58;;;;;;;15.95;11.45;;;;;;;;;;5012487;28;20289;-70
2023/05/06 00:08:23;;;;;;;17.13;12.52;;;;;;;;;;5006718;28;20283;-70
2023/05/06 00:10:48;;;;;;;16.15;12.20;;;;;;;;;;5009257;28;20278;-69
2023/05/06 00:13:13;;;;;;;15.38;12.43;;;;;;;;;;5006846;28;20589;-71
2023/05/06 00:15:39;;;;;;;18.27;12.80;;;;;;;;;;5011607;28;20186;-71
2023/05/06 00:18:04;;;;;;;15.57;12.13;;;;;;;;;;4994701;28;20214;-69
2023/05/06 00:20:30;;;;;;;14.73;11.43;;;;;;;;;;5008645;28;20632;-70
2023/05/06 00:22:55;;;;;;;14.30;10.77;;;;;;;;;;5008392;28;20704;-69
2023/05/06 00:25:20;;;;;;;19.02;12.20;;;;;;;;;;5005236;28;20269;-69
2023/05/06 00:27:46;;;;;;;19.60;12.95;;;;;;;;;;5009021;28;20217;-70
2023/05/06 00:30:11;;;;;;;15.00;11.47;;;;;;;;;;5006239;28;20183;-69
2023/05/06 00:32:36;;;;;;;17.58;11.80;;;;;;;;;;5006273;28;20209;-70
2023/05/06 00:35:02;;;;;;;15.07;11.73;;;;;;;;;;5008537;28;20210;-70
2023/05/06 00:37:27;;;;;;;16.77;11.17;;;;;;;;;;5007570;28;20186;-70
2023/05/06 00:39:53;;;;;;;20.60;11.47;;;;;;;;;;5010418;28;20262;-70
2023/05/06 00:42:18;;;;;;;17.43;11.90;;;;;;;;;;5007978;28;20290;-69
2023/05/06 00:44:43;;;;;;;16.93;11.03;;;;;;;;;;5007758;28;20179;-69
2023/05/06 00:47:09;;;;;;;14.37;11.17;;;;;;;;;;5007992;28;20198;-69
2023/05/06 00:49:34;;;;;;;16.90;11.70;;;;;;;;;;5008820;28;20190;-70
2023/05/06 00:52:00;;;;;;;17.37;12.07;;;;;;;;;;5009446;28;20539;-68
2023/05/06 00:54:25;;;;;;;18.93;12.33;;;;;;;;;;5011164;28;20254;-70
2023/05/06 00:56:50;;;;;;;15.60;12.07;;;;;;;;;;5003714;28;20196;-70
2023/05/06 00:59:16;;;;;;;16.90;12.20;;;;;;;;;;5007471;28;20221;-70
2023/05/06 01:01:42;;;;;;;16.43;12.00;;;;;;;;;;5009141;28;20293;-69
2023/05/06 01:04:07;;;;;;;16.47;11.37;;;;;;;;;;4997030;28;20186;-68
2023/05/06 01:06:51;;;;;;;18.23;12.13;;;;;;;;;;5007103;28;20636;-69
2023/05/06 01:09:21;;;;;;;14.70;11.97;;;;;;;;;;5008897;28;20182;-69
2023/05/06 01:11:52;;;;;;;16.20;11.80;;;;;;;;;;5009126;28;20245;-69
2023/05/06 01:14:39;;;;;;;15.17;11.70;;;;;;;;;;5006047;28;20668;-69
2023/05/06 01:17:06;;;;;;;16.80;11.87;;;;;;;;;;5008067;28;20265;-69
2023/05/06 01:19:45;;;;;;;20.87;12.80;;;;;;;;;;5009775;28;20225;-69
2023/05/06 01:22:11;;;;;;;17.17;12.80;;;;;;;;;;4999441;28;20203;-69
2023/05/06 01:24:37;;;;;;;19.37;13.33;;;;;;;;;;5011863;28;20179;-70
2023/05/06 01:27:03;;;;;;;17.90;12.97;;;;;;;;;;5010764;28;20205;-70
2023/05/06 01:29:28;;;;;;;17.53;13.40;;;;;;;;;;5013633;28;20189;-69
2023/05/06 01:31:55;;;;;;;17.90;12.73;;;;;;;;;;5014798;28;20201;-70
2023/05/06 01:34:26;;;;;;;17.37;12.37;;;;;;;;;;5010429;28;20222;-70
2023/05/06 01:36:59;;;;;;;21.67;14.03;;;;;;;;;;5010583;28;20218;-69
2023/05/06 01:39:25;;;;;;;19.47;13.80;;;;;;;;;;5010009;28;20183;-70
2023/05/06 01:41:50;;;;;;;19.97;13.63;;;;;;;;;;5013465;28;20895;-70
2023/05/06 01:44:16;;;;;;;20.87;12.93;;;;;;;;;;5004821;28;20218;-70
2023/05/06 01:46:42;;;;;;;19.70;13.27;;;;;;;;;;5014331;28;20692;-70
2023/05/06 01:49:10;;;;;;;19.63;13.90;;;;;;;;;;5011828;28;20252;-70
2023/05/06 01:51:35;;;;;;;24.83;15.73;;;;;;;;;;5015226;28;20320;-70
2023/05/06 01:54:01;;;;;;;20.20;15.77;;;;;;;;;;5012218;28;20299;-70
2023/05/06 01:56:29;;;;;;;18.20;13.60;;;;;;;;;;5012654;28;20584;-70
2023/05/06 01:58:54;;;;;;;21.30;15.13;;;;;;;;;;5011752;28;20653;-70
2023/05/06 02:01:19;;;;;;;19.87;14.53;;;;;;;;;;5014247;28;20309;-70
2023/05/06 02:03:44;;;;;;;16.90;12.70;;;;;;;;;;5006469;28;20195;-70
2023/05/06 02:06:09;;;;;;;19.57;14.67;;;;;;;;;;5012075;28;20214;-70
2023/05/06 02:08:34;;;;;;;20.93;14.13;;;;;;;;;;5010420;28;20547;-69
2023/05/06 02:11:00;;;;;;;21.30;14.67;;;;;;;;;;5011455;28;20195;-70
2023/05/06 02:13:25;;;;;;;22.80;16.07;;;;;;;;;;4999348;28;20675;-70
2023/05/06 02:15:53;;;;;;;21.80;15.27;;;;;;;;;;5014843;28;20652;-70
2023/05/06 02:18:18;;;;;;;22.70;14.93;;;;;;;;;;5010982;28;20618;-70
2023/05/06 02:20:44;;;;;;;24.10;17.53;;;;;;;;;;5010617;28;20198;-70
2023/05/06 02:23:09;;;;;;;25.43;17.87;;;;;;;;;;5015899;28;20553;-71
2023/05/06 02:25:34;;;;;;;25.17;17.97;;;;;;;;;;5011256;28;20191;-71
2023/05/06 02:27:59;;;;;;;21.87;17.60;;;;;;;;;;5009190;28;20199;-70
2023/05/06 02:30:24;;;;;;;23.70;16.50;;;;;;;;;;5011523;28;20179;-70
2023/05/06 02:32:50;;;;;;;24.50;16.63;;;;;;;;;;5012228;28;20175;-70
2023/05/06 02:35:15;;;;;;;25.50;17.60;;;;;;;;;;5010881;28;20175;-71
2023/05/06 02:37:40;;;;;;;22.63;16.27;;;;;;;;;;5010802;28;20190;-69
2023/05/06 02:40:06;;;;;;;23.77;16.50;;;;;;;;;;5013610;28;20211;-70
2023/05/06 02:42:33;;;;;;;25.00;16.23;;;;;;;;;;5011970;28;20195;-70
2023/05/06 02:44:58;;;;;;;22.60;16.37;;;;;;;;;;5011774;28;20613;-70
2023/05/06 02:47:23;;;;;;;21.93;16.47;;;;;;;;;;5010894;28;20218;-70
2023/05/06 02:49:48;;;;;;;22.53;15.53;;;;;;;;;;5012109;28;20621;-71
2023/05/06 02:52:13;;;;;;;22.63;15.43;;;;;;;;;;5011820;28;20658;-70
2023/05/06 02:54:39;;;;;;;20.83;16.07;;;;;;;;;;5012261;28;20179;-71
2023/05/06 02:57:04;;;;;;;21.87;15.53;;;;;;;;;;5011655;28;20195;-71
2023/05/06 02:59:29;;;;;;;24.00;16.13;;;;;;;;;;5011292;28;20784;-71
2023/05/06 03:01:55;;;;;;;19.40;15.20;;;;;;;;;;5010619;28;20210;-70
2023/05/06 03:04:21;;;;;;;19.97;14.00;;;;;;;;;;5011119;28;20206;-70
2023/05/06 03:06:46;;;;;;;21.67;14.20;;;;;;;;;;5012000;28;20676;-70
2023/05/06 03:09:11;;;;;;;25.00;15.87;;;;;;;;;;5012112;28;20182;-70
2023/05/06 03:11:36;;;;;;;21.73;15.17;;;;;;;;;;5014154;28;20206;-70
2023/05/06 03:14:02;;;;;;;21.20;15.20;;;;;;;;;;4999743;28;20554;-70
2023/05/06 03:16:27;;;;;;;21.33;15.60;;;;;;;;;;5008283;28;20210;-70
2023/05/06 03:18:52;;;;;;;22.07;15.20;;;;;;;;;;5014903;28;20184;-71
2023/05/06 03:21:17;;;;;;;22.37;15.33;;;;;;;;;;5013158;28;20208;-70
2023/05/06 03:23:42;;;;;;;22.07;15.47;;;;;;;;;;5009002;28;20221;-70
2023/05/06 03:26:08;;;;;;;21.67;14.70;;;;;;;;;;5012568;28;20199;-71
2023/05/06 03:28:33;;;;;;;22.23;16.00;;;;;;;;;;5009703;28;20265;-71
2023/05/06 03:30:58;;;;;;;22.07;15.20;;;;;;;;;;5010868;28;20619;-71
2023/05/06 03:33:23;;;;;;;21.30;14.33;;;;;;;;;;5005292;28;20184;-70
2023/05/06 03:35:48;;;;;;;24.30;16.20;;;;;;;;;;5010408;28;20190;-71
2023/05/06 03:38:14;;;;;;;23.87;15.73;;;;;;;;;;5010664;28;20214;-70
2023/05/06 03:40:39;;;;;;;23.80;15.50;;;;;;;;;;5009232;28;20187;-71
2023/05/06 03:43:04;;;;;;;22.23;15.43;;;;;;;;;;5005720;28;20182;-70
2023/05/06 03:45:30;;;;;;;21.70;15.00;;;;;;;;;;5010991;28;20183;-70
2023/05/06 03:47:55;;;;;;;21.47;15.03;;;;;;;;;;5010519;28;20183;-71
2023/05/06 03:50:20;;;;;;;23.23;15.50;;;;;;;;;;5008772;28;20186;-71
2023/05/06 03:52:46;;;;;;;21.50;15.47;;;;;;;;;;5010502;28;20181;-71
2023/05/06 03:55:11;;;;;;;24.30;15.53;;;;;;;;;;5009183;28;20262;-70
2023/05/06 03:57:36;;;;;;;27.07;17.30;;;;;;;;;;5012017;28;20659;-71
2023/05/06 04:00:01;;;;;;;22.73;15.97;;;;;;;;;;5012648;28;20810;-70
2023/05/06 04:02:28;;;;;;;23.03;15.90;;;;;;;;;;5015940;28;20692;-70
2023/05/06 04:04:53;;;;;;;26.30;17.30;;;;;;;;;;5011286;28;20663;-71
2023/05/06 04:07:18;;;;;;;20.93;15.70;;;;;;;;;;5011880;28;20289;-71
2023/05/06 04:09:43;;;;;;;22.30;15.03;;;;;;;;;;5009582;28;20615;-71
2023/05/06 04:12:08;;;;;;;23.53;16.23;;;;;;;;;;5010959;28;20234;-70
2023/05/06 04:14:34;;;;;;;23.97;16.77;;;;;;;;;;4999134;28;20673;-71
2023/05/06 04:16:59;;;;;;;23.87;15.37;;;;;;;;;;5003627;28;20185;-71
2023/05/06 04:19:25;;;;;;;25.60;17.03;;;;;;;;;;5010241;28;20187;-70
2023/05/06 04:21:50;;;;;;;25.77;16.53;;;;;;;;;;5011819;28;20672;-71
2023/05/06 04:24:16;;;;;;;25.50;15.53;;;;;;;;;;5009840;28;20232;-69
2023/05/06 04:26:41;;;;;;;23.37;17.00;;;;;;;;;;5009177;28;20644;-71
2023/05/06 04:29:07;;;;;;;27.80;17.33;;;;;;;;;;5009504;28;20182;-71
2023/05/06 04:31:33;;;;;;;24.40;16.03;;;;;;;;;;5007356;28;20244;-70
2023/05/06 04:33:59;;;;;;;26.77;17.23;;;;;;;;;;5011229;28;20267;-70
2023/05/06 04:36:24;;;;;;;33.73;20.33;;;;;;;;;;5007866;28;20274;-71
2023/05/06 04:38:51;;;;;;;29.97;19.17;;;;;;;;;;5007134;28;20412;-71
2023/05/06 04:41:16;;;;;;;33.07;19.07;;;;;;;;;;5008082;28;20207;-71
2023/05/06 04:43:42;;;;;;;31.27;19.30;;;;;;;;;;5010606;28;20560;-71
2023/05/06 04:46:07;;;;;;;26.17;18.07;;;;;;;;;;5008066;28;20192;-70
2023/05/06 04:48:32;;;;;;;30.53;19.27;;;;;;;;;;5007423;28;20231;-71
2023/05/06 04:50:57;;;;;;;27.90;18.60;;;;;;;;;;5011306;28;20267;-71
2023/05/06 04:53:22;;;;;;;25.17;17.65;;;;;;;;;;5010570;28;20183;-71
2023/05/06 04:55:48;;;;;;;23.87;17.63;;;;;;;;;;5016537;28;20171;-71
2023/05/06 04:58:13;;;;;;;28.27;18.00;;;;;;;;;;5015612;28;20719;-72
2023/05/06 05:00:38;;;;;;;22.58;15.77;;;;;;;;;;5011101;28;20177;-71
2023/05/06 05:03:03;;;;;;;20.20;15.20;;;;;;;;;;5012864;28;20292;-71
2023/05/06 05:05:29;;;;;;;21.45;15.40;;;;;;;;;;5014998;28;20179;-71
2023/05/06 05:07:55;;;;;;;22.17;15.32;;;;;;;;;;5012728;28;20615;-70
2023/05/06 05:10:20;;;;;;;21.90;16.20;;;;;;;;;;5014878;28;20178;-71
2023/05/06 05:12:45;;;;;;;21.00;15.38;;;;;;;;;;5008988;28;20814;-71
2023/05/06 05:15:11;;;;;;;18.70;13.63;;;;;;;;;;5011748;28;20175;-70
2023/05/06 05:17:36;;;;;;;19.60;14.02;;;;;;;;;;5001516;28;20175;-71
2023/05/06 05:20:02;;;;;;;18.90;13.32;;;;;;;;;;5023203;28;20240;-71
2023/05/06 05:22:27;;;;;;;22.05;14.90;;;;;;;;;;5010532;28;20198;-70
2023/05/06 05:24:52;;;;;;;22.70;14.80;;;;;;;;;;5011782;28;20183;-71
2023/05/06 05:27:17;;;;;;;19.52;13.80;;;;;;;;;;5008809;28;20203;-70
2023/05/06 05:29:42;;;;;;;20.17;13.88;;;;;;;;;;5010982;28;20171;-71
2023/05/06 05:32:08;;;;;;;18.25;13.02;;;;;;;;;;5012746;28;20203;-70
2023/05/06 05:34:33;;;;;;;17.02;13.20;;;;;;;;;;5013729;28;20187;-70
2023/05/06 05:36:58;;;;;;;20.98;14.30;;;;;;;;;;5013472;28;20182;-70
2023/05/06 05:39:23;;;;;;;18.23;12.98;;;;;;;;;;5012172;28;20233;-71
2023/05/06 05:41:48;;;;;;;19.73;15.15;;;;;;;;;;5011414;28;20364;-70
2023/05/06 05:44:14;;;;;;;20.58;14.85;;;;;;;;;;5012278;28;20182;-71
2023/05/06 05:46:39;;;;;;;20.98;14.52;;;;;;;;;;5011027;28;20745;-71
2023/05/06 05:49:05;;;;;;;17.92;13.50;;;;;;;;;;5013515;28;20186;-70
2023/05/06 05:51:30;;;;;;;21.30;14.82;;;;;;;;;;5012185;28;20233;-69
2023/05/06 05:53:55;;;;;;;19.73;14.77;;;;;;;;;;5013068;28;20179;-70
2023/05/06 05:56:21;;;;;;;19.15;13.48;;;;;;;;;;5016556;28;20193;-71
2023/05/06 05:58:46;;;;;;;18.30;13.05;;;;;;;;;;5015002;28;20552;-70
2023/05/06 06:01:11;;;;;;;18.70;13.18;;;;;;;;;;5014691;23;20227;-69
2023/05/06 06:03:37;;;;;;;18.95;13.45;;;;;;;;;;5005873;28;20217;-69
2023/05/06 06:06:02;;;;;;;20.02;13.75;;;;;;;;;;5008681;28;20207;-69
2023/05/06 06:08:28;;;;;;;19.77;13.18;;;;;;;;;;5011528;28;20179;-69
2023/05/06 06:10:53;;;;;;;17.75;13.30;;;;;;;;;;5010827;28;20176;-68
2023/05/06 06:13:19;;;;;;;17.08;12.82;;;;;;;;;;5010007;28;20595;-68
2023/05/06 06:15:45;;;;;;;18.05;12.75;;;;;;;;;;5008092;28;20175;-68
2023/05/06 06:18:10;;;;;;;17.70;14.02;;;;;;;;;;5002778;28;20249;-68
2023/05/06 06:20:35;;;;;;;19.75;13.68;;;;;;;;;;5015095;28;20656;-68
2023/05/06 06:23:01;;;;;;;18.30;13.05;;;;;;;;;;5014074;28;20198;-68
2023/05/06 06:25:26;;;;;;;17.63;13.05;;;;;;;;;;5007074;28;20198;-69
2023/05/06 06:27:53;;;;;;;15.38;12.70;;;;;;;;;;5008608;28;20859;-68
2023/05/06 06:30:18;;;;;;;16.98;13.02;;;;;;;;;;5006321;28;20309;-69
2023/05/06 06:32:48;;;;;;;16.00;12.00;;;;;;;;;;5004290;28;20274;-69
2023/05/06 06:35:13;;;;;;;16.60;11.48;;;;;;;;;;5009645;28;21659;-68
2023/05/06 06:37:38;;;;;;;16.35;11.32;;;;;;;;;;5007633;28;20545;-68
2023/05/06 06:40:04;;;;;;;13.95;11.48;;;;;;;;;;5015291;28;20621;-69
2023/05/06 06:42:29;;;;;;;15.93;11.98;;;;;;;;;;5012886;28;20640;-68
2023/05/06 06:44:54;;;;;;;16.55;10.93;;;;;;;;;;5009283;28;20182;-68
2023/05/06 06:47:19;;;;;;;16.13;12.07;;;;;;;;;;5008865;28;20580;-68
2023/05/06 06:49:45;;;;;;;16.85;11.82;;;;;;;;;;5010306;28;20210;-68
2023/05/06 06:52:10;;;;;;;15.35;11.55;;;;;;;;;;5011542;28;20248;-69
2023/05/06 06:54:36;;;;;;;14.95;11.75;;;;;;;;;;5006253;28;20201;-68
2023/05/06 06:57:01;;;;;;;16.60;11.57;;;;;;;;;;5003699;28;20187;-68
2023/05/06 06:59:26;;;;;;;21.95;11.90;;;;;;;;;;5009333;28;20183;-68
2023/05/06 07:01:52;;;;;;;13.85;10.75;;;;;;;;;;5009066;28;20277;-68
2023/05/06 07:04:17;;;;;;;15.25;11.38;;;;;;;;;;5006182;28;20225;-68
2023/05/06 07:06:42;;;;;;;12.23;9.75;;;;;;;;;;4999684;28;20668;-68
2023/05/06 07:09:07;;;;;;;13.23;9.90;;;;;;;;;;5010727;28;20175;-68
2023/05/06 07:11:32;;;;;;;13.85;9.35;;;;;;;;;;5004133;28;20199;-68
2023/05/06 07:13:57;;;;;;;14.10;9.93;;;;;;;;;;5008722;28;20229;-68
2023/05/06 07:16:23;;;;;;;13.43;10.50;;;;;;;;;;5005570;28;20218;-68
2023/05/06 07:18:49;;;;;;;14.60;9.73;;;;;;;;;;4994963;28;20195;-68
2023/05/06 07:21:14;;;;;;;14.00;11.02;;;;;;;;;;5004924;28;20662;-68
2023/05/06 07:23:40;;;;;;;15.70;10.13;;;;;;;;;;5007744;28;20186;-68
2023/05/06 07:26:05;;;;;;;15.35;10.25;;;;;;;;;;5007175;28;20206;-68
2023/05/06 07:28:30;;;;;;;14.85;9.55;;;;;;;;;;5008433;28;20189;-68
2023/05/06 07:30:55;;;;;;;13.80;8.90;;;;;;;;;;5006193;28;20190;-68
2023/05/06 07:33:21;;;;;;;15.02;10.20;;;;;;;;;;5007610;28;20178;-68
2023/05/06 07:35:46;;;;;;;11.77;10.32;;;;;;;;;;5007219;28;20180;-68
2023/05/06 07:38:11;;;;;;;18.38;12.35;;;;;;;;;;5011191;28;20186;-68
2023/05/06 07:40:36;;;;;;;15.85;10.10;;;;;;;;;;5007305;28;20187;-68
2023/05/06 07:43:02;;;;;;;16.65;11.75;;;;;;;;;;4999399;28;20203;-68
2023/05/06 07:45:27;;;;;;;17.48;12.63;;;;;;;;;;5007918;28;20537;-68
2023/05/06 07:47:52;;;;;;;19.27;11.27;;;;;;;;;;5000483;28;20215;-68
2023/05/06 07:50:18;;;;;;;17.95;11.65;;;;;;;;;;5004706;28;20187;-68
2023/05/06 07:52:43;;;;;;;14.90;10.60;;;;;;;;;;5001557;28;20238;-69
2023/05/06 07:55:08;;;;;;;13.27;10.10;;;;;;;;;;5004793;28;20185;-68
2023/05/06 07:57:34;;;;;;;15.93;10.50;;;;;;;;;;5007784;28;20925;-68
2023/05/06 07:59:59;;;;;;;15.23;10.68;;;;;;;;;;5004311;28;20572;-68
2023/05/06 08:02:25;;;;;;;15.93;10.93;;;;;;;;;;5004809;28;20218;-68
2023/05/06 08:04:51;;;;;;;16.05;10.30;;;;;;;;;;5006062;28;20180;-68
2023/05/06 08:07:16;;;;;;;15.32;11.75;;;;;;;;;;5008967;28;20209;-68
2023/05/06 08:09:41;;;;;;;17.05;11.60;;;;;;;;;;5009932;28;20181;-68
2023/05/06 08:12:06;;;;;;;17.48;10.95;;;;;;;;;;5013566;28;20443;-68
2023/05/06 08:14:31;;;;;;;15.88;11.65;;;;;;;;;;5012080;28;20640;-68
2023/05/06 08:16:57;;;;;;;17.10;11.97;;;;;;;;;;5010309;28;20194;-68
2023/05/06 08:19:22;;;;;;;16.17;11.80;;;;;;;;;;4999171;28;20425;-68
2023/05/06 08:21:47;;;;;;;19.37;12.33;;;;;;;;;;5001351;28;20953;-68
2023/05/06 08:24:13;;;;;;;15.85;11.57;;;;;;;;;;5006280;28;20474;-68
2023/05/06 08:26:38;;;;;;;18.13;11.40;;;;;;;;;;5000126;28;20685;-68
2023/05/06 08:29:03;;;;;;;16.65;11.23;;;;;;;;;;5007625;28;20175;-68
2023/05/06 08:31:28;;;;;;;14.90;10.63;;;;;;;;;;5000312;28;20250;-68
2023/05/06 08:33:53;;;;;;;18.43;12.10;;;;;;;;;;5010888;28;20419;-68
2023/05/06 08:36:19;;;;;;;13.37;10.67;;;;;;;;;;5012782;28;20404;-68
2023/05/06 08:38:49;;;;;;;17.27;11.37;;;;;;;;;;5008533;28;20933;-68
2023/05/06 08:41:15;;;;;;;15.95;11.48;;;;;;;;;;5003368;28;20972;-68
2023/05/06 08:43:41;;;;;;;14.77;10.98;;;;;;;;;;5010108;28;20190;-68
2023/05/06 08:46:07;;;;;;;19.92;12.75;;;;;;;;;;5005257;28;20194;-68
2023/05/06 08:48:32;;;;;;;18.90;12.35;;;;;;;;;;5002038;28;20206;-68
2023/05/06 08:50:59;;;;;;;21.92;13.50;;;;;;;;;;5003424;28;20286;-68
2023/05/06 08:53:24;;;;;;;19.90;12.10;;;;;;;;;;5000673;28;20171;-68
2023/05/06 08:55:50;;;;;;;15.68;11.00;;;;;;;;;;5005456;28;20250;-68
2023/05/06 08:58:16;;;;;;;15.70;11.70;;;;;;;;;;5007706;28;20282;-68
2023/05/06 09:00:41;;;;;;;18.90;11.25;;;;;;;;;;5005568;28;20632;-68
2023/05/06 09:03:07;;;;;;;17.92;12.20;;;;;;;;;;5008763;28;20273;-68
2023/05/06 09:05:32;;;;;;;16.27;11.93;;;;;;;;;;5015099;28;20663;-68
2023/05/06 09:07:57;;;;;;;15.40;12.23;;;;;;;;;;5004218;28;20207;-68
2023/05/06 09:10:22;;;;;;;16.93;12.70;;;;;;;;;;5008726;28;20432;-68
2023/05/06 09:12:48;;;;;;;15.80;12.10;;;;;;;;;;5007911;28;20444;-68
2023/05/06 09:15:13;;;;;;;15.87;11.37;;;;;;;;;;5010166;28;20185;-68
2023/05/06 09:17:38;;;;;;;17.05;12.27;;;;;;;;;;5003166;28;20425;-67
2023/05/06 09:20:07;;;;;;;17.23;11.25;;;;;;;;;;4998412;28;20664;-68
2023/05/06 09:22:32;;;;;;;16.17;11.05;;;;;;;;;;5000484;28;20638;-67
2023/05/06 09:24:57;;;;;;;16.50;12.05;;;;;;;;;;5007813;28;20262;-68
2023/05/06 09:27:28;;;;;;;16.40;10.88;;;;;;;;;;5008378;28;20199;-67
2023/05/06 09:30:00;;;;;;;15.65;10.43;;;;;;;;;;5009218;28;20218;-68
2023/05/06 09:32:25;;;;;;;14.05;10.52;;;;;;;;;;4995967;28;20218;-68
2023/05/06 09:34:50;;;;;;;14.98;10.30;;;;;;;;;;5000407;28;20179;-68
2023/05/06 09:37:16;;;;;;;14.00;10.50;;;;;;;;;;4994661;28;20180;-68
2023/05/06 09:39:41;;;;;;;14.83;9.97;;;;;;;;;;5009648;28;20942;-68
2023/05/06 09:42:07;;;;;;;15.30;11.33;;;;;;;;;;4999661;28;20488;-68
2023/05/06 09:44:32;;;;;;;13.40;9.65;;;;;;;;;;5005742;28;20429;-68
2023/05/06 09:46:58;;;;;;;15.13;9.50;;;;;;;;;;5005557;28;20713;-68
2023/05/06 09:49:23;;;;;;;15.25;10.93;;;;;;;;;;5007334;28;20650;-68
2023/05/06 09:51:50;;;;;;;12.73;8.60;;;;;;;;;;5007447;28;20214;-68
2023/05/06 09:54:16;;;;;;;11.63;8.05;;;;;;;;;;5010669;28;20396;-68
2023/05/06 09:56:42;;;;;;;11.75;7.72;;;;;;;;;;5011929;28;20184;-68
2023/05/06 09:59:08;;;;;;;11.10;6.88;;;;;;;;;;5008118;28;20196;-69
2023/05/06 10:01:34;;;;;;;11.43;5.95;;;;;;;;;;5002760;28;20217;-69
2023/05/06 10:04:01;;;;;;;12.38;7.18;;;;;;;;;;5004405;28;20175;-69
2023/05/06 10:06:26;;;;;;;9.32;6.70;;;;;;;;;;4996826;28;20239;-68
2023/05/06 10:08:52;;;;;;;14.20;6.95;;;;;;;;;;5008902;28;20183;-69
2023/05/06 10:11:20;;;;;;;11.93;6.18;;;;;;;;;;5003592;28;20200;-69
2023/05/06 10:13:45;;;;;;;9.13;6.40;;;;;;;;;;5001249;28;20179;-69
2023/05/06 10:16:11;;;;;;;11.30;6.82;;;;;;;;;;4999727;28;20175;-69
2023/05/06 10:18:37;;;;;;;10.25;6.75;;;;;;;;;;5005409;28;20578;-68
2023/05/06 10:21:07;;;;;;;7.75;6.43;;;;;;;;;;4999291;28;20309;-68
2023/05/06 10:23:55;;;;;;;13.30;7.70;;;;;;;;;;5011389;28;20190;-68
2023/05/06 10:26:21;;;;;;;13.15;8.45;;;;;;;;;;5025028;28;20266;-69
2023/05/06 10:28:51;;;;;;;13.15;7.88;;;;;;;;;;4997564;28;20216;-69
2023/05/06 10:31:16;;;;;;;10.50;7.65;;;;;;;;;;5005921;28;20286;-68
2023/05/06 10:33:44;;;;;;;9.23;7.40;;;;;;;;;;5003880;28;20262;-68
2023/05/06 10:36:19;;;;;;;10.90;7.10;;;;;;;;;;5005317;28;20437;-65
2023/05/06 10:38:46;;;;;;;10.07;7.85;;;;;;;;;;5001556;28;20221;-68
2023/05/06 10:41:12;;;;;;;9.57;7.65;;;;;;;;;;5010730;28;20206;-69
2023/05/06 10:43:41;;;;;;;11.00;7.60;;;;;;;;;;5008112;28;20183;-69
2023/05/06 10:46:09;;;;;;;13.20;8.60;;;;;;;;;;5010065;28;20266;-70
2023/05/06 10:48:35;;;;;;;13.57;8.68;;;;;;;;;;5010731;28;20592;-68
2023/05/06 10:51:16;;;;;;;10.05;7.68;;;;;;;;;;5008724;28;20200;-68
2023/05/06 10:54:04;;;;;;;8.85;7.55;;;;;;;;;;5010609;28;20238;-69
2023/05/06 10:56:30;;;;;;;10.85;7.40;;;;;;;;;;5010669;28;20199;-70
2023/05/06 10:58:56;;;;;;;10.52;7.38;;;;;;;;;;5026370;28;20217;-69
2023/05/06 11:01:25;;;;;;;9.85;7.28;;;;;;;;;;5009008;28;20207;-69
2023/05/06 11:03:50;;;;;;;10.20;8.70;;;;;;;;;;5010399;28;20174;-69
2023/05/06 11:06:42;;;;;;;10.45;7.68;;;;;;;;;;5011040;28;20675;-69
2023/05/06 11:09:16;;;;;;;10.88;7.68;;;;;;;;;;5002568;28;20194;-69
2023/05/06 11:11:49;;;;;;;9.02;7.60;;;;;;;;;;4998980;28;20190;-69
2023/05/06 11:14:23;;;;;;;9.95;6.72;;;;;;;;;;5009395;28;20277;-69
2023/05/06 11:16:49;;;;;;;8.30;6.18;;;;;;;;;;5016256;28;20182;-69
2023/05/06 11:19:37;;;;;;;16.75;7.40;;;;;;;;;;5009021;28;20537;-68
2023/05/06 11:22:03;;;;;;;10.07;6.25;;;;;;;;;;5001465;28;20222;-68
2023/05/06 11:24:30;;;;;;;10.45;7.50;;;;;;;;;;5005548;28;20179;-68
2023/05/06 11:26:56;;;;;;;9.95;6.68;;;;;;;;;;5001301;28;20297;-68
2023/05/06 11:29:21;;;;;;;9.40;6.63;;;;;;;;;;5011319;28;20631;-68
2023/05/06 11:31:47;;;;;;;9.93;5.93;;;;;;;;;;5001388;28;20223;-68
2023/05/06 11:34:17;;;;;;;8.70;6.20;;;;;;;;;;5005496;28;20553;-68
2023/05/06 11:36:57;;;;;;;5.68;4.50;;;;;;;;;;5013425;28;20266;-68
2023/05/06 11:39:22;;;;;;;11.48;5.65;;;;;;;;;;5009624;28;20236;-68
2023/05/06 11:41:48;;;;;;;7.82;5.07;;;;;;;;;;5005702;28;20211;-68
2023/05/06 11:44:22;;;;;;;8.57;4.68;;;;;;;;;;5008238;28;20568;-68
2023/05/06 11:46:47;;;;;;;7.93;5.18;;;;;;;;;;5004922;28;20198;-68
2023/05/06 11:49:13;;;;;;;7.70;5.13;;;;;;;;;;5012786;28;20210;-68
2023/05/06 11:51:39;;;;;;;11.05;5.45;;;;;;;;;;5007767;28;21834;-68
2023/05/06 11:54:06;;;;;;;5.80;4.20;;;;;;;;;;4999569;28;20211;-68
2023/05/06 11:56:41;;;;;;;8.10;4.20;;;;;;;;;;5006022;28;20431;-68
2023/05/06 11:59:06;;;;;;;6.70;5.07;;;;;;;;;;5011866;28;20182;-68
2023/05/06 12:01:32;;;;;;;6.63;4.87;;;;;;;;;;5020479;22;20262;-76
2023/05/06 12:03:57;;;;;;;8.07;5.43;;;;;;;;;;4994682;28;20222;-77
2023/05/06 12:06:34;;;;;;;6.23;5.20;;;;;;;;;;4996938;28;20215;-77
2023/05/06 12:09:01;;;;;;;6.40;4.85;;;;;;;;;;4990669;28;20497;-77
2023/05/06 12:11:26;;;;;;;6.70;3.88;;;;;;;;;;4991288;28;20215;-77
2023/05/06 12:13:51;;;;;;;7.45;4.75;;;;;;;;;;4993702;28;20257;-77
2023/05/06 12:16:17;;;;;;;6.82;4.43;;;;;;;;;;4990088;28;20589;-77
2023/05/06 12:18:42;;;;;;;4.40;3.20;;;;;;;;;;4991845;28;20695;-77
2023/05/06 12:21:07;;;;;;;8.45;5.18;;;;;;;;;;4985481;28;20218;-78
2023/05/06 12:23:32;;;;;;;7.57;4.20;;;;;;;;;;4989022;28;20269;-75
2023/05/06 12:26:02;;;;;;;7.07;4.03;;;;;;;;;;4989317;28;20418;-75
2023/05/06 12:28:28;;;;;;;5.90;3.92;;;;;;;;;;4987091;28;20560;-76
2023/05/06 12:30:53;;;;;;;7.57;3.85;;;;;;;;;;4990162;28;20203;-75
2023/05/06 12:33:18;;;;;;;6.00;3.70;;;;;;;;;;4990936;28;20649;-76
2023/05/06 12:35:44;;;;;;;5.70;4.70;;;;;;;;;;4989630;28;20437;-76
2023/05/06 12:38:10;;;;;;;7.03;3.90;;;;;;;;;;5022908;28;20445;-76
2023/05/06 12:40:35;;;;;;;6.80;5.07;;;;;;;;;;5009729;28;20191;-76
2023/05/06 12:43:01;;;;;;;9.60;4.68;;;;;;;;;;5008054;28;20184;-76
2023/05/06 12:45:26;;;;;;;9.65;4.53;;;;;;;;;;4990267;28;20180;-76
2023/05/06 12:47:55;;;;;;;9.13;4.93;;;;;;;;;;4991242;28;20490;-76
2023/05/06 12:50:36;;;;;;;6.85;4.47;;;;;;;;;;4990393;28;20172;-76
2023/05/06 12:53:05;;;;;;;6.60;4.00;;;;;;;;;;4989778;28;20707;-76
2023/05/06 12:55:31;;;;;;;8.48;5.30;;;;;;;;;;5005198;28;20642;-76
2023/05/06 12:57:57;;;;;;;7.53;4.28;;;;;;;;;;4983313;28;20254;-76
2023/05/06 13:00:22;;;;;;;9.20;5.35;;;;;;;;;;4969433;28;20190;-76
2023/05/06 13:02:47;;;;;;;7.33;4.43;;;;;;;;;;4976651;28;20219;-76
2023/05/06 13:05:13;;;;;;;7.47;4.50;;;;;;;;;;4973803;28;20519;-76
2023/05/06 13:07:38;;;;;;;6.55;4.22;;;;;;;;;;4972345;28;20465;-76
2023/05/06 13:10:04;;;;;;;7.72;4.82;;;;;;;;;;4973417;28;20188;-76
2023/05/06 13:12:31;;;;;;;5.72;4.25;;;;;;;;;;4970608;28;20226;-76
2023/05/06 13:14:56;;;;;;;7.07;4.60;;;;;;;;;;4982765;28;20183;-77
2023/05/06 13:17:21;;;;;;;7.45;4.53;;;;;;;;;;4994322;28;20175;-77
2023/05/06 13:19:47;;;;;;;7.45;5.00;;;;;;;;;;4995780;28;20192;-77
2023/05/06 13:22:12;;;;;;;6.83;4.63;;;;;;;;;;4994970;28;20247;-77
2023/05/06 13:24:37;;;;;;;5.45;4.15;;;;;;;;;;4996996;28;20417;-75
2023/05/06 13:27:02;;;;;;;6.45;4.38;;;;;;;;;;4989983;28;20700;-76
2023/05/06 13:29:28;;;;;;;7.50;4.50;;;;;;;;;;4993964;28;20661;-76
2023/05/06 13:31:54;;;;;;;9.45;5.30;;;;;;;;;;4994082;28;20201;-76
2023/05/06 13:34:19;;;;;;;7.65;4.93;;;;;;;;;;4994774;28;20218;-75
2023/05/06 13:36:46;;;;;;;7.20;4.53;;;;;;;;;;4993734;28;20180;-75
2023/05/06 13:39:11;;;;;;;6.13;4.03;;;;;;;;;;4994596;28;20182;-77
2023/05/06 13:41:37;;;;;;;6.63;3.95;;;;;;;;;;4993148;28;20195;-76
2023/05/06 13:44:02;;;;;;;10.50;4.93;;;;;;;;;;4994234;28;20493;-76
2023/05/06 13:46:27;;;;;;;7.70;5.00;;;;;;;;;;4987637;28;20448;-77
2023/05/06 13:48:52;;;;;;;9.02;5.05;;;;;;;;;;4992670;28;20593;-77
2023/05/06 13:51:18;;;;;;;6.47;3.97;;;;;;;;;;4990355;28;20207;-77
2023/05/06 13:53:43;;;;;;;7.10;4.70;;;;;;;;;;4992004;28;20425;-77
2023/05/06 13:56:08;;;;;;;7.30;4.80;;;;;;;;;;4996682;28;20436;-77
2023/05/06 13:58:33;;;;;;;5.88;4.18;;;;;;;;;;4991369;28;20171;-77
2023/05/06 14:00:59;;;;;;;7.40;4.03;;;;;;;;;;5008130;28;20263;-77
2023/05/06 14:03:24;;;;;;;7.28;3.70;;;;;;;;;;4990604;28;20642;-77
2023/05/06 14:05:50;;;;;;;5.40;4.30;;;;;;;;;;4993130;28;20175;-77
2023/05/06 14:08:15;;;;;;;4.90;3.30;;;;;;;;;;4990480;28;20227;-77
2023/05/06 14:10:40;;;;;;;4.90;3.73;;;;;;;;;;4990808;28;20199;-77
2023/05/06 14:13:06;;;;;;;4.95;4.10;;;;;;;;;;4988920;28;20441;-77
2023/05/06 14:15:31;;;;;;;6.45;4.28;;;;;;;;;;4991288;28;20654;-77
2023/05/06 14:17:56;;;;;;;4.20;3.13;;;;;;;;;;4993461;28;20280;-77